createdAt,value
2022-12-27T00:01:14.715Z,12.25
2022-12-27T00:03:43.727Z,12.27
2022-12-27T00:06:13.145Z,11.55
2022-12-27T00:08:41.224Z,10.57
2022-12-27T00:11:11.403Z,6.35
2022-12-27T00:13:41.143Z,6.00
2022-12-27T00:16:12.530Z,11.18
2022-12-27T00:18:41.701Z,8.57
2022-12-27T00:21:12.912Z,11.00
2022-12-27T00:23:42.838Z,7.43
2022-12-27T00:26:14.761Z,9.68
2022-12-27T00:28:44.333Z,7.95
2022-12-27T00:31:12.444Z,7.95
2022-12-27T00:33:42.970Z,6.68
2022-12-27T00:36:14.252Z,9.27
2022-12-27T00:38:42.280Z,11.30
2022-12-27T00:41:11.376Z,8.77
2022-12-27T00:43:39.250Z,8.68
2022-12-27T00:46:12.021Z,5.88
2022-12-27T00:48:40.404Z,6.95
2022-12-27T00:51:12.376Z,8.73
2022-12-27T00:53:40.669Z,6.00
2022-12-27T00:56:09.317Z,7.28
2022-12-27T00:58:40.816Z,11.60
2022-12-27T01:01:12.490Z,8.15
2022-12-27T01:03:41.269Z,9.65
2022-12-27T01:06:10.848Z,7.88
2022-12-27T01:08:38.884Z,9.95
2022-12-27T01:11:08.551Z,6.45
2022-12-27T01:13:37.511Z,10.93
2022-12-27T01:16:12.682Z,11.00
2022-12-27T01:18:40.834Z,6.95
2022-12-27T01:21:10.518Z,12.18
2022-12-27T01:23:38.712Z,7.07
2022-12-27T01:26:09.026Z,5.45
2022-12-27T01:28:37.317Z,9.07
2022-12-27T01:31:12.172Z,9.10
2022-12-27T01:33:40.261Z,9.85
2022-12-27T01:36:15.931Z,10.40
2022-12-27T01:38:44.610Z,7.57
2022-12-27T01:41:34.445Z,10.52
2022-12-27T01:44:02.550Z,8.02
2022-12-27T01:46:32.060Z,12.70
2022-12-27T01:49:03.303Z,14.07
2022-12-27T01:51:33.031Z,19.90
2022-12-27T01:54:01.515Z,9.93
2022-12-27T01:56:32.403Z,10.95
2022-12-27T01:59:04.235Z,13.60
2022-12-27T02:01:37.717Z,7.40
2022-12-27T02:04:10.134Z,7.00
2022-12-27T02:06:39.363Z,6.65
2022-12-27T02:09:14.788Z,9.38
2022-12-27T02:11:56.464Z,6.18
2022-12-27T02:14:29.912Z,12.15
2022-12-27T02:17:02.199Z,8.40
2022-12-27T02:19:55.345Z,13.65
2022-12-27T02:23:12.649Z,8.48
2022-12-27T02:26:07.422Z,10.13
2022-12-27T02:28:55.101Z,13.93
2022-12-27T02:31:31.101Z,8.32
2022-12-27T02:34:01.571Z,10.88
2022-12-27T02:36:33.783Z,9.15
2022-12-27T02:39:03.986Z,11.70
2022-12-27T02:41:53.549Z,9.48
2022-12-27T02:44:40.259Z,12.10
2022-12-27T02:47:37.289Z,10.88
2022-12-27T02:50:24.009Z,8.20
2022-12-27T02:53:06.605Z,9.85
2022-12-27T02:56:07.655Z,13.32
2022-12-27T02:58:49.102Z,12.27
2022-12-27T03:01:45.312Z,9.55
2022-12-27T03:04:33.036Z,16.35
2022-12-27T03:07:23.839Z,12.43
2022-12-27T03:10:22.360Z,16.35
2022-12-27T03:13:14.458Z,5.22
2022-12-27T03:16:09.480Z,15.40
2022-12-27T03:18:57.831Z,12.25
2022-12-27T03:21:50.107Z,8.75
2022-12-27T03:24:39.567Z,10.05
2022-12-27T03:27:18.710Z,10.52
2022-12-27T03:30:10.578Z,8.77
2022-12-27T03:33:04.463Z,10.10
2022-12-27T03:35:39.810Z,13.32
2022-12-27T03:41:04.965Z,10.30
2022-12-27T03:43:35.810Z,11.75
2022-12-27T03:46:32.057Z,8.70
2022-12-27T03:49:13.560Z,6.25
2022-12-27T03:51:46.117Z,12.75
2022-12-27T03:54:26.741Z,8.57
2022-12-27T03:56:57.210Z,7.00
2022-12-27T03:59:25.853Z,8.75
2022-12-27T04:01:54.673Z,10.35
2022-12-27T04:04:22.744Z,10.48
2022-12-27T04:06:52.289Z,14.15
2022-12-27T04:09:38.701Z,8.32
2022-12-27T04:12:24.729Z,13.48
2022-12-27T04:15:10.539Z,10.60
2022-12-27T04:17:55.992Z,16.55
2022-12-27T04:20:42.232Z,8.82
2022-12-27T04:23:28.775Z,11.88
2022-12-27T04:26:14.728Z,12.82
2022-12-27T04:31:47.320Z,7.55
2022-12-27T04:34:32.395Z,10.10
2022-12-27T04:37:00.653Z,9.55
2022-12-27T04:39:29.947Z,9.00
2022-12-27T04:42:15.019Z,6.95
2022-12-27T04:45:00.003Z,8.23
2022-12-27T04:47:45.934Z,10.73
2022-12-27T04:50:42.427Z,10.45
2022-12-27T04:53:30.512Z,6.57
2022-12-27T04:56:00.477Z,7.50
2022-12-27T04:58:28.491Z,6.07
2022-12-27T05:01:16.612Z,7.35
2022-12-27T05:03:50.291Z,8.40
2022-12-27T05:06:19.409Z,12.05
2022-12-27T05:09:04.678Z,8.95
2022-12-27T05:11:51.823Z,8.77
2022-12-27T05:14:19.636Z,8.70
2022-12-27T05:16:47.519Z,7.63
2022-12-27T05:19:16.616Z,7.85
2022-12-27T05:22:06.932Z,8.43
2022-12-27T05:24:53.113Z,7.53
2022-12-27T05:27:22.287Z,10.77
2022-12-27T05:29:50.068Z,12.20
2022-12-27T05:32:18.464Z,10.25
2022-12-27T05:34:46.240Z,7.88
2022-12-27T05:37:15.240Z,15.85
2022-12-27T05:39:43.946Z,11.23
2022-12-27T05:42:11.933Z,9.23
2022-12-27T05:44:41.401Z,10.98
2022-12-27T05:47:10.120Z,10.13
2022-12-27T05:49:37.956Z,7.05
2022-12-27T05:52:06.067Z,11.27
2022-12-27T05:54:34.905Z,9.73
2022-12-27T05:57:02.699Z,13.38
2022-12-27T05:59:30.669Z,6.53
2022-12-27T06:02:00.685Z,9.27
2022-12-27T06:04:28.676Z,11.95
2022-12-27T06:06:56.467Z,9.10
2022-12-27T06:09:24.961Z,12.00
2022-12-27T06:11:52.959Z,13.50
2022-12-27T06:14:20.876Z,8.68
2022-12-27T06:16:49.117Z,11.82
2022-12-27T06:19:18.472Z,8.30
2022-12-27T06:21:46.503Z,8.70
2022-12-27T06:24:14.834Z,11.30
2022-12-27T06:26:43.576Z,10.60
2022-12-27T06:29:12.901Z,8.23
2022-12-27T06:31:41.894Z,10.90
2022-12-27T06:34:11.456Z,13.70
2022-12-27T06:36:40.945Z,12.50
2022-12-27T06:39:09.192Z,13.88
2022-12-27T06:41:37.103Z,8.18
2022-12-27T06:44:05.117Z,9.98
2022-12-27T06:46:33.407Z,6.57
2022-12-27T06:49:01.666Z,8.60
2022-12-27T06:51:29.462Z,4.93
2022-12-27T06:53:59.258Z,9.63
2022-12-27T06:56:27.145Z,11.73
2022-12-27T06:58:55.078Z,7.03
2022-12-27T07:01:27.124Z,7.15
2022-12-27T07:03:56.989Z,11.15
2022-12-27T07:06:27.406Z,10.60
2022-12-27T07:08:55.575Z,11.57
2022-12-27T07:11:25.991Z,5.35
2022-12-27T07:13:56.467Z,10.35
2022-12-27T07:16:26.798Z,12.02
2022-12-27T07:18:56.656Z,8.35
2022-12-27T07:21:26.848Z,8.07
2022-12-27T07:23:55.117Z,8.63
2022-12-27T07:26:29.003Z,9.50
2022-12-27T07:28:57.748Z,13.00
2022-12-27T07:31:30.159Z,9.98
2022-12-27T07:33:58.725Z,9.27
2022-12-27T07:36:29.267Z,7.85
2022-12-27T07:38:57.875Z,11.43
2022-12-27T07:41:27.147Z,11.90
2022-12-27T07:43:55.175Z,9.15
2022-12-27T07:46:25.819Z,12.57
2022-12-27T07:48:54.847Z,9.80
2022-12-27T07:51:22.646Z,14.18
2022-12-27T07:53:51.893Z,11.00
2022-12-27T07:56:25.846Z,14.45
2022-12-27T07:58:58.139Z,12.82
2022-12-27T08:01:28.702Z,7.05
2022-12-27T08:03:57.011Z,7.32
2022-12-27T08:06:29.321Z,13.63
2022-12-27T08:08:59.133Z,8.65
2022-12-27T08:11:27.374Z,11.60
2022-12-27T08:13:56.933Z,10.05
2022-12-27T08:16:26.587Z,8.95
2022-12-27T08:18:54.663Z,9.18
2022-12-27T08:21:24.431Z,9.40
2022-12-27T08:23:52.776Z,8.80
2022-12-27T08:26:20.568Z,9.07
2022-12-27T08:28:48.890Z,10.55
2022-12-27T08:31:18.197Z,10.52
2022-12-27T08:33:46.052Z,9.27
2022-12-27T08:36:45.342Z,6.15
2022-12-27T08:39:03.068Z,12.93
2022-12-27T08:41:31.169Z,10.18
2022-12-27T08:43:58.896Z,10.90
2022-12-27T08:46:28.046Z,8.77
2022-12-27T08:48:55.978Z,6.20
2022-12-27T08:51:34.412Z,10.18
2022-12-27T08:54:08.708Z,8.00
2022-12-27T08:56:36.541Z,10.07
2022-12-27T08:59:04.603Z,5.57
2022-12-27T09:01:34.123Z,9.35
2022-12-27T09:04:02.040Z,15.23
2022-12-27T09:06:29.726Z,6.30
2022-12-27T09:08:58.016Z,10.45
2022-12-27T09:11:27.333Z,10.82
2022-12-27T09:13:56.836Z,11.10
2022-12-27T09:16:27.705Z,8.48
2022-12-27T09:18:58.991Z,12.82
2022-12-27T09:21:30.528Z,7.57
2022-12-27T09:23:59.584Z,17.52
2022-12-27T09:26:30.344Z,12.15
2022-12-27T09:28:59.141Z,11.15
2022-12-27T09:31:28.041Z,9.63
2022-12-27T09:33:58.471Z,11.18
2022-12-27T09:36:28.549Z,9.88
2022-12-27T09:38:57.817Z,7.75
2022-12-27T09:44:33.452Z,11.10
2022-12-27T09:47:06.124Z,10.55
2022-12-27T09:49:38.912Z,13.27
2022-12-27T09:52:12.623Z,12.43
2022-12-27T09:55:01.056Z,7.97
2022-12-27T09:57:37.233Z,9.10
2022-12-27T10:00:08.274Z,11.98
2022-12-27T10:02:36.680Z,12.68
2022-12-27T10:05:20.847Z,13.38
2022-12-27T10:08:00.778Z,10.30
2022-12-27T10:10:43.827Z,14.80
2022-12-27T10:13:29.394Z,8.32
2022-12-27T10:16:09.644Z,11.82
2022-12-27T10:18:48.765Z,10.32
2022-12-27T10:21:22.320Z,16.70
2022-12-27T10:23:55.614Z,11.48
2022-12-27T10:26:24.349Z,9.90
2022-12-27T10:28:57.540Z,13.02
2022-12-27T10:31:27.011Z,9.88
2022-12-27T10:33:55.310Z,13.18
2022-12-27T10:36:27.503Z,11.88
2022-12-27T10:38:56.148Z,11.05
2022-12-27T10:41:40.020Z,16.52
2022-12-27T10:44:11.902Z,13.45
2022-12-27T10:46:42.758Z,13.45
2022-12-27T10:49:24.291Z,13.02
2022-12-27T10:51:55.477Z,9.43
2022-12-27T10:54:26.212Z,6.97
2022-12-27T10:56:55.333Z,15.13
2022-12-27T10:59:25.161Z,13.73
2022-12-27T11:02:16.932Z,13.75
2022-12-27T11:04:57.963Z,13.02
2022-12-27T11:07:30.831Z,9.98
2022-12-27T11:10:08.482Z,12.00
2022-12-27T11:12:36.634Z,14.88
2022-12-27T11:15:06.687Z,22.27
2022-12-27T11:17:39.983Z,17.58
2022-12-27T11:20:21.868Z,17.52
2022-12-27T11:22:54.156Z,16.13
2022-12-27T11:25:22.953Z,10.90
2022-12-27T11:27:55.669Z,17.00
2022-12-27T11:30:26.957Z,13.25
2022-12-27T11:32:55.252Z,11.65
2022-12-27T11:35:24.736Z,13.38
2022-12-27T11:37:54.505Z,11.77
2022-12-27T11:40:26.494Z,17.27
2022-12-27T11:43:02.900Z,11.57
2022-12-27T11:45:36.657Z,10.18
2022-12-27T11:48:12.668Z,15.02
2022-12-27T11:51:22.268Z,9.25
2022-12-27T11:54:07.036Z,15.73
2022-12-27T11:56:37.596Z,13.95
2022-12-27T11:59:43.967Z,16.80
2022-12-27T12:02:33.181Z,11.85
2022-12-27T12:05:46.108Z,13.95
2022-12-27T12:08:34.277Z,22.45
2022-12-27T12:11:17.331Z,21.50
2022-12-27T12:14:21.450Z,8.20
2022-12-27T12:17:17.534Z,14.82
2022-12-27T12:20:04.374Z,10.40
2022-12-27T12:22:46.717Z,7.22
2022-12-27T12:25:35.677Z,9.90
2022-12-27T12:28:57.712Z,10.90
2022-12-27T12:31:33.102Z,13.63
2022-12-27T12:34:15.679Z,7.90
2022-12-27T12:36:55.224Z,7.63
2022-12-27T12:39:40.205Z,13.13
2022-12-27T12:42:20.338Z,6.80
2022-12-27T12:45:07.331Z,8.98
2022-12-27T12:47:59.710Z,11.57
2022-12-27T12:50:44.740Z,12.00
2022-12-27T12:53:30.648Z,7.65
2022-12-27T12:56:17.390Z,5.65
2022-12-27T12:58:58.861Z,14.95
2022-12-27T13:01:52.808Z,10.02
2022-12-27T13:04:55.639Z,9.88
2022-12-27T13:07:37.810Z,7.43
2022-12-27T13:10:39.055Z,8.75
2022-12-27T13:13:16.512Z,8.27
2022-12-27T13:15:55.337Z,11.02
2022-12-27T13:18:31.377Z,8.52
2022-12-27T13:21:12.830Z,18.75
2022-12-27T13:23:54.056Z,7.03
2022-12-27T13:26:31.246Z,16.10
2022-12-27T13:29:31.062Z,14.35
2022-12-27T13:32:06.638Z,16.42
2022-12-27T13:34:46.090Z,12.90
2022-12-27T13:37:25.498Z,15.05
2022-12-27T13:40:24.642Z,14.05
2022-12-27T13:43:20.179Z,12.25
2022-12-27T13:46:02.347Z,8.40
2022-12-27T13:48:56.508Z,7.80
2022-12-27T13:51:45.052Z,12.40
2022-12-27T13:54:53.246Z,16.50
2022-12-27T13:57:36.559Z,12.20
2022-12-27T14:00:18.346Z,11.95
2022-12-27T14:03:28.403Z,9.00
2022-12-27T14:06:15.772Z,10.75
2022-12-27T14:09:06.934Z,12.23
2022-12-27T14:11:47.727Z,8.93
2022-12-27T14:14:20.019Z,7.05
2022-12-27T14:17:09.699Z,13.48
2022-12-27T14:19:53.506Z,9.18
2022-12-27T14:22:54.005Z,8.43
2022-12-27T14:25:57.325Z,13.32
2022-12-27T14:29:00.071Z,13.80
2022-12-27T14:31:50.727Z,11.13
2022-12-27T14:34:57.415Z,6.45
2022-12-27T14:37:59.469Z,6.95
2022-12-27T14:40:55.108Z,11.45
2022-12-27T14:43:58.929Z,7.50
2022-12-27T14:46:50.285Z,9.90
2022-12-27T14:49:43.012Z,10.13
2022-12-27T14:53:16.663Z,10.90
2022-12-27T14:55:55.296Z,10.52
2022-12-27T14:58:47.501Z,11.13
2022-12-27T15:01:27.074Z,7.68
2022-12-27T15:04:03.608Z,9.60
2022-12-27T15:06:48.711Z,8.95
2022-12-27T15:09:26.010Z,10.73
2022-12-27T15:12:07.062Z,17.08
2022-12-27T15:14:58.003Z,12.00
2022-12-27T15:17:52.698Z,10.93
2022-12-27T15:20:43.133Z,12.07
2022-12-27T15:23:21.420Z,7.22
2022-12-27T15:25:59.964Z,10.68
2022-12-27T15:28:44.285Z,8.35
2022-12-27T15:31:22.514Z,9.65
2022-12-27T15:34:12.473Z,12.48
2022-12-27T15:36:42.371Z,7.68
2022-12-27T15:39:44.381Z,9.25
2022-12-27T15:42:37.276Z,11.63
2022-12-27T15:45:18.508Z,12.40
2022-12-27T15:48:09.769Z,9.98
2022-12-27T15:50:48.626Z,8.95
2022-12-27T15:53:38.049Z,14.23
2022-12-27T15:56:33.684Z,8.43
2022-12-27T15:59:41.063Z,11.95
2022-12-27T16:02:33.464Z,14.15
2022-12-27T16:05:13.854Z,12.02
2022-12-27T16:07:45.916Z,11.73
2022-12-27T16:10:35.472Z,14.63
2022-12-27T16:13:21.813Z,15.27
2022-12-27T16:15:55.106Z,12.13
2022-12-27T16:19:02.176Z,10.85
2022-12-27T16:21:40.902Z,15.48
2022-12-27T16:24:16.604Z,13.70
2022-12-27T16:26:59.565Z,16.20
2022-12-27T16:29:32.905Z,18.30
2022-12-27T16:32:19.147Z,12.05
2022-12-27T16:34:52.067Z,11.73
2022-12-27T16:37:37.156Z,11.48
2022-12-27T16:40:42.162Z,11.65
2022-12-27T16:43:48.400Z,9.50
2022-12-27T16:46:43.549Z,10.48
2022-12-27T16:49:56.380Z,9.07
2022-12-27T16:53:00.342Z,16.13
2022-12-27T16:55:51.612Z,9.40
2022-12-27T16:58:33.610Z,7.57
2022-12-27T17:01:03.063Z,11.45
2022-12-27T17:03:46.565Z,9.23
2022-12-27T17:06:51.386Z,12.38
2022-12-27T17:09:54.297Z,22.70
2022-12-27T17:12:26.554Z,31.48
2022-12-27T17:15:02.855Z,47.15
2022-12-27T17:17:32.009Z,20.40
2022-12-27T17:20:03.979Z,34.58
2022-12-27T17:22:35.190Z,38.15
2022-12-27T17:25:17.532Z,27.52
2022-12-27T17:28:02.216Z,57.83
2022-12-27T17:30:41.190Z,66.50
2022-12-27T17:33:24.447Z,21.20
2022-12-27T17:39:20.184Z,22.23
2022-12-27T17:45:20.263Z,17.35
2022-12-27T17:48:05.410Z,12.20
2022-12-27T17:50:33.777Z,17.52
2022-12-27T17:53:34.754Z,15.15
2022-12-27T17:56:30.362Z,19.60
2022-12-27T17:59:04.607Z,16.42
2022-12-27T18:01:36.152Z,14.05
2022-12-27T18:04:07.548Z,19.05
2022-12-27T18:06:38.668Z,13.25
2022-12-27T18:09:07.210Z,14.48
2022-12-27T18:11:35.927Z,11.55
2022-12-27T18:14:05.204Z,12.40
2022-12-27T18:16:41.057Z,16.42
2022-12-27T18:19:09.047Z,15.52
2022-12-27T18:21:36.852Z,13.38
2022-12-27T18:24:25.350Z,20.13
2022-12-27T18:27:01.943Z,21.60
2022-12-27T18:29:30.696Z,16.83
2022-12-27T18:32:04.380Z,21.50
2022-12-27T18:34:40.060Z,15.07
2022-12-27T18:37:10.985Z,31.77
2022-12-27T18:39:43.296Z,33.88
2022-12-27T18:42:18.566Z,17.73
2022-12-27T18:44:49.610Z,14.80
2022-12-27T18:47:22.724Z,16.75
2022-12-27T18:49:56.136Z,14.75
2022-12-27T18:52:27.715Z,16.30
2022-12-27T18:54:56.352Z,15.40
2022-12-27T18:57:35.259Z,13.18
2022-12-27T19:00:15.971Z,13.38
2022-12-27T19:02:46.048Z,24.33
2022-12-27T19:05:23.538Z,20.45
2022-12-27T19:07:55.816Z,16.20
2022-12-27T19:10:26.387Z,12.52
2022-12-27T19:12:56.166Z,10.65
2022-12-27T19:15:28.733Z,14.00
2022-12-27T19:18:01.578Z,17.90
2022-12-27T19:20:32.118Z,17.02
2022-12-27T19:23:02.736Z,15.55
2022-12-27T19:25:33.078Z,13.13
2022-12-27T19:28:03.870Z,16.30
2022-12-27T19:30:35.448Z,12.52
2022-12-27T19:33:09.801Z,19.17
2022-12-27T19:35:37.950Z,15.30
2022-12-27T19:38:05.804Z,22.27
2022-12-27T19:40:33.840Z,21.90
2022-12-27T19:43:01.746Z,17.40
2022-12-27T19:45:30.090Z,18.08
2022-12-27T19:47:58.012Z,8.30
2022-12-27T19:50:27.585Z,15.43
2022-12-27T19:52:55.950Z,21.42
2022-12-27T19:55:27.511Z,10.00
2022-12-27T19:57:56.148Z,9.52
2022-12-27T20:00:24.599Z,11.32
2022-12-27T20:02:53.692Z,9.50
2022-12-27T20:06:13.093Z,8.32
2022-12-27T20:08:25.260Z,16.75
2022-12-27T20:10:54.113Z,15.85
2022-12-27T20:13:22.609Z,15.52
2022-12-27T20:15:51.580Z,15.18
2022-12-27T20:18:21.692Z,9.43
2022-12-27T20:20:52.412Z,9.75
2022-12-27T20:23:21.967Z,9.77
2022-12-27T20:25:51.016Z,15.77
2022-12-27T20:28:20.715Z,17.27
2022-12-27T20:30:48.661Z,11.48
2022-12-27T20:33:17.036Z,11.45
2022-12-27T20:35:45.864Z,10.73
2022-12-27T20:38:13.759Z,16.27
2022-12-27T20:40:43.186Z,16.65
2022-12-27T20:43:14.333Z,17.27
2022-12-27T20:45:42.175Z,17.27
2022-12-27T20:48:10.896Z,21.77
2022-12-27T20:50:39.974Z,18.27
2022-12-27T20:53:09.078Z,12.02
2022-12-27T20:55:36.929Z,20.02
2022-12-27T20:58:06.984Z,21.60
2022-12-27T21:00:34.979Z,15.07
2022-12-27T21:03:02.943Z,15.73
2022-12-27T21:05:31.422Z,13.15
2022-12-27T21:07:59.296Z,13.25
2022-12-27T21:10:27.156Z,12.25
2022-12-27T21:12:55.495Z,9.18
2022-12-27T21:15:25.787Z,18.63
2022-12-27T21:17:53.695Z,20.83
2022-12-27T21:20:22.053Z,14.23
2022-12-27T21:22:49.910Z,12.38
2022-12-27T21:25:17.896Z,20.15
2022-12-27T21:27:46.240Z,19.98
2022-12-27T21:30:14.561Z,19.10
2022-12-27T21:32:43.798Z,13.43
2022-12-27T21:35:12.290Z,11.13
2022-12-27T21:37:40.167Z,16.55
2022-12-27T21:40:09.252Z,17.75
2022-12-27T21:42:37.654Z,20.90
2022-12-27T21:45:06.511Z,15.90
2022-12-27T21:47:34.453Z,13.30
2022-12-27T21:50:04.445Z,10.90
2022-12-27T21:52:32.261Z,20.13
2022-12-27T21:55:00.168Z,11.85
2022-12-27T21:57:28.535Z,16.23
2022-12-27T21:59:56.451Z,13.68
2022-12-27T22:02:24.527Z,31.27
2022-12-27T22:04:53.026Z,24.80
2022-12-27T22:07:22.350Z,32.15
2022-12-27T22:09:50.218Z,21.55
2022-12-27T22:12:18.527Z,15.82
2022-12-27T22:14:46.465Z,13.52
2022-12-27T22:17:14.384Z,12.05
2022-12-27T22:19:42.800Z,10.45
2022-12-27T22:22:13.678Z,11.82
2022-12-27T22:24:43.660Z,15.82
2022-12-27T22:27:11.534Z,11.98
2022-12-27T22:29:39.494Z,17.40
2022-12-27T22:32:07.811Z,12.10
2022-12-27T22:34:35.678Z,10.77
2022-12-27T22:37:03.666Z,11.20
2022-12-27T22:39:31.901Z,18.67
2022-12-27T22:42:01.278Z,10.02
2022-12-27T22:44:29.812Z,11.82
2022-12-27T22:47:25.824Z,14.63
2022-12-27T22:49:47.763Z,10.73
2022-12-27T22:52:15.684Z,9.73
2022-12-27T22:55:04.911Z,10.95
2022-12-27T22:57:36.426Z,13.13
2022-12-27T23:00:06.203Z,9.68
2022-12-27T23:02:34.578Z,9.52
2022-12-27T23:05:03.364Z,9.88
2022-12-27T23:08:04.124Z,10.30
2022-12-27T23:10:19.516Z,10.68
2022-12-27T23:12:48.836Z,8.90
2022-12-27T23:15:16.959Z,8.20
2022-12-27T23:17:45.247Z,6.88
2022-12-27T23:20:13.496Z,10.43
2022-12-27T23:22:41.399Z,8.52
2022-12-27T23:25:12.559Z,8.82
2022-12-27T23:27:40.645Z,9.65
2022-12-27T23:30:12.200Z,15.82
2022-12-27T23:32:40.244Z,9.15
2022-12-27T23:35:08.634Z,10.85
2022-12-27T23:37:36.403Z,8.88
2022-12-27T23:40:05.104Z,10.02
2022-12-27T23:42:32.990Z,6.65
2022-12-27T23:45:00.915Z,8.10
2022-12-27T23:47:30.532Z,6.00
2022-12-27T23:49:58.361Z,7.80
2022-12-27T23:52:26.321Z,8.93
2022-12-27T23:54:54.709Z,9.23
2022-12-27T23:57:23.075Z,7.82
2022-12-27T23:59:51.614Z,9.32
